createdAt,value
2023-08-15T00:03:13.946Z,14.00
2023-08-15T00:08:17.185Z,14.70
2023-08-15T00:13:20.398Z,14.00
2023-08-15T00:18:23.527Z,16.70
2023-08-15T00:23:26.636Z,13.40
2023-08-15T00:28:29.796Z,13.90
2023-08-15T00:33:34.816Z,13.90
2023-08-15T00:38:37.849Z,14.40
2023-08-15T00:43:40.982Z,17.80
2023-08-15T00:48:44.292Z,13.60
2023-08-15T00:53:48.236Z,13.80
2023-08-15T00:58:51.433Z,13.40
2023-08-15T01:03:55.477Z,14.00
2023-08-15T01:09:02.394Z,16.40
2023-08-15T01:14:12.504Z,13.60
2023-08-15T01:19:31.193Z,14.40
2023-08-15T01:24:35.084Z,18.40
2023-08-15T01:29:38.400Z,17.90
2023-08-15T01:34:54.919Z,17.90
2023-08-15T01:40:02.515Z,16.70
2023-08-15T01:45:08.984Z,16.20
2023-08-15T01:50:12.166Z,16.70
2023-08-15T01:55:15.454Z,15.80
2023-08-15T02:00:18.552Z,14.90
2023-08-15T02:05:22.246Z,15.40
2023-08-15T02:10:25.419Z,14.10
2023-08-15T02:15:28.660Z,16.50
2023-08-15T02:20:33.262Z,15.30
2023-08-15T02:25:36.462Z,16.70
2023-08-15T02:30:39.636Z,14.80
2023-08-15T02:35:43.131Z,16.30
2023-08-15T02:40:46.216Z,15.10
2023-08-15T02:45:49.455Z,16.50
2023-08-15T02:50:52.665Z,14.90
2023-08-15T02:55:55.844Z,16.60
2023-08-15T03:00:59.040Z,20.60
2023-08-15T03:06:03.345Z,16.50
2023-08-15T03:11:06.534Z,15.20
2023-08-15T03:16:09.745Z,18.40
2023-08-15T03:21:13.042Z,14.40
2023-08-15T03:26:16.773Z,14.80
2023-08-15T03:31:22.633Z,15.10
2023-08-15T03:36:29.196Z,14.90
2023-08-15T03:41:32.712Z,15.50
2023-08-15T03:46:36.097Z,17.10
2023-08-15T03:51:47.037Z,18.70
2023-08-15T03:56:51.185Z,16.90
2023-08-15T04:01:56.177Z,16.20
2023-08-15T04:07:01.325Z,16.80
2023-08-15T04:12:05.289Z,15.80
2023-08-15T04:17:08.577Z,16.10
2023-08-15T04:22:11.773Z,16.90
2023-08-15T04:27:15.100Z,16.00
2023-08-15T04:32:18.728Z,16.20
2023-08-15T04:37:22.188Z,15.80
2023-08-15T04:42:25.727Z,14.80
2023-08-15T04:47:28.836Z,18.40
2023-08-15T04:52:31.921Z,16.50
2023-08-15T04:57:36.531Z,18.20
2023-08-15T05:02:40.416Z,13.80
2023-08-15T05:07:43.804Z,14.10
2023-08-15T05:12:47.031Z,18.30
2023-08-15T05:17:51.365Z,14.50
2023-08-15T05:22:54.668Z,15.50
2023-08-15T05:27:58.280Z,15.40
2023-08-15T05:33:01.776Z,14.60
2023-08-15T05:38:05.120Z,13.50
2023-08-15T05:43:08.415Z,14.00
2023-08-15T05:48:12.429Z,14.00
2023-08-15T05:53:15.828Z,12.10
2023-08-15T05:58:19.684Z,12.80
2023-08-15T06:03:39.747Z,12.00
2023-08-15T06:08:46.247Z,17.50
2023-08-15T06:13:49.291Z,11.70
2023-08-15T06:18:52.366Z,13.40
2023-08-15T06:23:55.434Z,12.50
2023-08-15T06:28:58.519Z,12.00
2023-08-15T06:34:03.528Z,12.90
2023-08-15T06:39:06.862Z,12.80
2023-08-15T06:44:10.173Z,10.60
2023-08-15T06:49:13.277Z,13.70
2023-08-15T06:54:16.445Z,12.10
2023-08-15T06:59:21.466Z,10.90
2023-08-15T07:04:24.803Z,13.00
2023-08-15T07:09:29.525Z,9.80
2023-08-15T07:14:33.437Z,9.00
2023-08-15T07:19:36.654Z,9.30
2023-08-15T07:24:42.235Z,11.50
2023-08-15T07:29:46.082Z,8.80
2023-08-15T07:34:49.284Z,8.60
2023-08-15T07:39:59.362Z,8.80
2023-08-15T07:45:04.045Z,7.80
2023-08-15T07:50:17.014Z,10.40
2023-08-15T07:55:25.581Z,9.50
2023-08-15T08:00:28.999Z,7.60
2023-08-15T08:05:34.283Z,7.20
2023-08-15T08:10:37.858Z,11.50
2023-08-15T08:15:40.976Z,7.70
2023-08-15T08:20:44.271Z,14.70
2023-08-15T08:25:47.558Z,27.70
2023-08-15T08:30:50.636Z,10.90
2023-08-15T08:35:53.767Z,8.50
2023-08-15T08:40:57.052Z,9.30
2023-08-15T08:46:01.338Z,8.90
2023-08-15T08:51:06.594Z,8.10
2023-08-15T08:56:10.260Z,7.30
2023-08-15T09:01:15.085Z,6.80
2023-08-15T09:06:18.536Z,5.60
2023-08-15T09:11:21.865Z,7.80
2023-08-15T09:16:25.189Z,8.80
2023-08-15T09:21:28.694Z,7.40
2023-08-15T09:26:36.214Z,7.50
2023-08-15T09:31:40.074Z,7.80
2023-08-15T09:36:43.272Z,6.60
2023-08-15T09:41:49.302Z,8.40
2023-08-15T09:46:52.533Z,6.40
2023-08-15T09:52:01.077Z,6.50
2023-08-15T09:57:04.454Z,6.60
2023-08-15T10:02:24.215Z,7.90
2023-08-15T10:07:30.672Z,5.40
2023-08-15T10:12:37.436Z,5.80
2023-08-15T10:17:41.182Z,11.20
2023-08-15T10:22:44.383Z,6.40
2023-08-15T10:27:53.039Z,7.20
2023-08-15T10:32:59.946Z,6.90
2023-08-15T10:38:14.528Z,7.20
2023-08-15T10:43:18.111Z,6.50
2023-08-15T10:48:41.103Z,4.90
2023-08-15T10:53:52.128Z,9.50
2023-08-15T10:58:56.454Z,5.90
2023-08-15T11:03:59.770Z,7.70
2023-08-15T11:09:06.402Z,4.80
2023-08-15T11:14:20.280Z,4.90
2023-08-15T11:19:24.014Z,6.70
2023-08-15T11:24:34.515Z,4.90
2023-08-15T11:29:37.707Z,6.70
2023-08-15T11:34:41.081Z,4.90
2023-08-15T11:39:54.345Z,6.50
2023-08-15T11:45:09.608Z,6.10
2023-08-15T11:50:13.071Z,4.20
2023-08-15T11:55:16.210Z,5.30
2023-08-15T12:00:20.564Z,6.60
2023-08-15T12:05:23.709Z,7.20
2023-08-15T12:10:27.020Z,7.30
2023-08-15T12:15:30.341Z,4.10
2023-08-15T12:20:33.692Z,5.30
2023-08-15T12:25:36.902Z,7.90
2023-08-15T12:30:40.451Z,66.50
2023-08-15T12:35:45.419Z,53.50
2023-08-15T12:40:48.662Z,5.50
2023-08-15T12:45:51.719Z,4.60
2023-08-15T12:50:54.987Z,7.40
2023-08-15T12:55:58.375Z,3.70
2023-08-15T13:01:01.967Z,6.00
2023-08-15T13:06:05.261Z,3.40
2023-08-15T13:11:08.749Z,4.60
2023-08-15T13:16:12.627Z,5.10
2023-08-15T13:21:15.867Z,5.40
2023-08-15T13:26:21.934Z,4.60
2023-08-15T13:31:25.183Z,5.70
2023-08-15T13:36:28.474Z,3.00
2023-08-15T13:41:32.249Z,6.10
2023-08-15T13:46:35.845Z,4.70
2023-08-15T13:51:40.104Z,3.00
2023-08-15T13:56:44.831Z,3.40
2023-08-15T14:01:48.199Z,5.50
2023-08-15T14:06:51.554Z,5.10
2023-08-15T14:11:54.721Z,2.90
2023-08-15T14:16:58.004Z,3.40
2023-08-15T14:22:01.324Z,3.40
2023-08-15T14:27:04.797Z,4.40
2023-08-15T14:32:08.126Z,4.80
2023-08-15T14:37:13.944Z,3.60
2023-08-15T14:42:17.253Z,4.90
2023-08-15T14:47:29.500Z,4.50
2023-08-15T14:52:32.933Z,3.20
2023-08-15T14:57:36.163Z,5.60
2023-08-15T15:02:39.588Z,6.70
2023-08-15T15:07:43.200Z,5.90
2023-08-15T15:12:46.776Z,3.90
2023-08-15T15:17:50.055Z,4.00
2023-08-15T15:22:53.718Z,3.30
2023-08-15T15:27:57.078Z,5.70
2023-08-15T15:33:00.280Z,3.70
2023-08-15T15:38:03.629Z,3.30
2023-08-15T15:43:06.876Z,3.80
2023-08-15T15:48:10.124Z,5.40
2023-08-15T15:53:13.404Z,3.60
2023-08-15T15:58:16.687Z,4.70
2023-08-15T16:03:20.000Z,3.30
2023-08-15T16:08:23.294Z,3.50
2023-08-15T16:13:26.665Z,3.80
2023-08-15T16:18:29.938Z,4.80
2023-08-15T16:23:33.091Z,3.90
2023-08-15T16:28:36.314Z,6.20
2023-08-15T16:33:39.430Z,6.40
2023-08-15T16:38:42.599Z,3.40
2023-08-15T16:43:45.767Z,5.30
2023-08-15T16:48:49.243Z,2.60
2023-08-15T16:53:52.921Z,7.60
2023-08-15T16:58:56.084Z,5.60
2023-08-15T17:03:59.483Z,5.40
2023-08-15T17:09:03.070Z,4.70
2023-08-15T17:14:06.821Z,2.80
2023-08-15T17:19:10.003Z,4.50
2023-08-15T17:24:22.156Z,6.00
2023-08-15T17:29:25.281Z,4.00
2023-08-15T17:34:44.257Z,4.70
2023-08-15T17:39:47.577Z,6.80
2023-08-15T17:45:00.250Z,5.50
2023-08-15T17:50:03.683Z,6.30
2023-08-15T17:55:07.107Z,6.10
2023-08-15T18:00:10.907Z,4.10
2023-08-15T18:05:15.405Z,6.00
2023-08-15T18:10:18.637Z,6.40
2023-08-15T18:15:21.962Z,4.70
2023-08-15T18:20:25.218Z,6.00
2023-08-15T18:25:28.359Z,5.20
2023-08-15T18:30:32.377Z,7.40
2023-08-15T18:35:35.711Z,7.60
2023-08-15T18:40:41.601Z,5.60
2023-08-15T18:45:45.809Z,6.00
2023-08-15T18:50:49.222Z,10.50
2023-08-15T18:55:52.382Z,8.70
2023-08-15T19:00:55.666Z,11.70
2023-08-15T19:05:58.881Z,8.90
2023-08-15T19:11:02.325Z,8.60
2023-08-15T19:16:05.562Z,11.10
2023-08-15T19:21:08.871Z,9.10
2023-08-15T19:26:12.260Z,8.80
2023-08-15T19:31:15.937Z,9.20
2023-08-15T19:36:19.057Z,10.30
2023-08-15T19:41:22.366Z,8.20
2023-08-15T19:46:25.567Z,7.50
2023-08-15T19:51:28.728Z,9.10
2023-08-15T19:56:31.956Z,7.30
2023-08-15T20:01:35.158Z,7.70
2023-08-15T20:06:39.088Z,7.50
2023-08-15T20:11:42.286Z,8.60
2023-08-15T20:16:48.399Z,8.20
2023-08-15T20:21:51.969Z,7.30
2023-08-15T20:26:55.185Z,7.10
2023-08-15T20:31:58.478Z,9.40
2023-08-15T20:37:01.737Z,8.90
2023-08-15T20:42:05.057Z,6.30
2023-08-15T20:47:08.390Z,6.70
2023-08-15T20:52:11.559Z,5.90
2023-08-15T20:57:15.312Z,5.90
2023-08-15T21:02:18.506Z,9.00
2023-08-15T21:07:55.411Z,5.10
2023-08-15T21:13:01.136Z,7.00
2023-08-15T21:18:04.346Z,7.20
2023-08-15T21:23:19.364Z,6.50
2023-08-15T21:28:22.425Z,7.70
2023-08-15T21:33:56.154Z,6.50
2023-08-15T21:44:02.431Z,7.20
2023-08-15T21:49:08.668Z,5.80
2023-08-15T21:54:14.683Z,6.00
2023-08-15T21:59:17.780Z,6.60
2023-08-15T22:04:21.140Z,8.60
2023-08-15T22:09:24.919Z,9.10
2023-08-15T22:14:29.015Z,8.30
2023-08-15T22:19:32.114Z,7.80
2023-08-15T22:24:57.350Z,6.80
2023-08-15T22:30:09.054Z,8.80
2023-08-15T22:35:12.249Z,9.90
2023-08-15T22:40:15.400Z,6.40
2023-08-15T22:45:18.490Z,12.70
2023-08-15T22:50:21.611Z,7.70
2023-08-15T22:55:24.833Z,8.90
2023-08-15T23:00:28.009Z,6.30
2023-08-15T23:05:32.603Z,8.10
2023-08-15T23:10:35.761Z,7.90
2023-08-15T23:15:38.886Z,10.60
2023-08-15T23:20:42.224Z,7.50
2023-08-15T23:25:45.449Z,8.30
2023-08-15T23:30:49.713Z,8.60
2023-08-15T23:35:52.996Z,10.50
2023-08-15T23:40:56.421Z,12.20
2023-08-15T23:45:59.541Z,8.10
2023-08-15T23:51:02.725Z,10.60
2023-08-15T23:56:05.815Z,11.80
